<?xml version="1.0" encoding="utf-8"?>
<gpx xmlns:xsi="http://www.w3.org/2001/XMLSchema-instance" xmlns:xsd="http://www.w3.org/2001/XMLSchema" version="1.1" creator="Shapelink.com" xmlns="http://www.topografix.com/GPX/1/1" xmlns:gpxtpx="http://www.garmin.com/xmlschemas/TrackPointExtension/v1">
  <metadata>
    <name>Längdskidåkning 0.67 km, 2012-02-21</name>
    <desc></desc>
    <author><name>Dennis Rehn</name></author> 
    <time>2012-02-21T10:50:28Z</time>
  </metadata>
  <trk>
    <name>Längdskidåkning 0.67 km, 2012-02-21</name>
    <trkseg>
      <trkpt lat="59.9907110509" lon="23.4083725229">
        <ele>9</ele>
        <time>2012-02-21T10:50:28Z</time>
      </trkpt>
      <trkpt lat="59.9908269726" lon="23.408588273">
        <ele>9</ele>
        <time>2012-02-21T10:50:32Z</time>
      </trkpt>
      <trkpt lat="59.9909614183" lon="23.4088323539">
        <ele>9</ele>
        <time>2012-02-21T10:50:37Z</time>
      </trkpt>
      <trkpt lat="59.9910811118" lon="23.4090061107">
        <ele>9</ele>
        <time>2012-02-21T10:50:41Z</time>
      </trkpt>
      <trkpt lat="59.9912201675" lon="23.4091256366">
        <ele>8.6</ele>
        <time>2012-02-21T10:50:45Z</time>
      </trkpt>
      <trkpt lat="59.9913588041" lon="23.4091355272">
        <ele>8</ele>
        <time>2012-02-21T10:50:49Z</time>
      </trkpt>
      <trkpt lat="59.9914958482" lon="23.4091057715">
        <ele>7.4</ele>
        <time>2012-02-21T10:50:53Z</time>
      </trkpt>
      <trkpt lat="59.9915967663" lon="23.4089893469">
        <ele>6.4</ele>
        <time>2012-02-21T10:50:57Z</time>
      </trkpt>
      <trkpt lat="59.9917141129" lon="23.4087954736">
        <ele>5.4</ele>
        <time>2012-02-21T10:51:02Z</time>
      </trkpt>
      <trkpt lat="59.9917733729" lon="23.4085997562">
        <ele>4.2</ele>
        <time>2012-02-21T10:51:07Z</time>
      </trkpt>
      <trkpt lat="59.9918082416" lon="23.4084176175">
        <ele>3.6</ele>
        <time>2012-02-21T10:51:11Z</time>
      </trkpt>
      <trkpt lat="59.9918069005" lon="23.4081514084">
        <ele>2.2</ele>
        <time>2012-02-21T10:51:16Z</time>
      </trkpt>
      <trkpt lat="59.9917694334" lon="23.407920487">
        <ele>1.4</ele>
        <time>2012-02-21T10:51:21Z</time>
      </trkpt>
      <trkpt lat="59.9917255961" lon="23.4077442995">
        <ele>1</ele>
        <time>2012-02-21T10:51:26Z</time>
      </trkpt>
      <trkpt lat="59.9916897216" lon="23.4075811877">
        <ele>0.6</ele>
        <time>2012-02-21T10:51:31Z</time>
      </trkpt>
      <trkpt lat="59.9916548528" lon="23.4074499272">
        <ele>0.4</ele>
        <time>2012-02-21T10:51:36Z</time>
      </trkpt>
      <trkpt lat="59.9916199841" lon="23.4073117096">
        <ele>0.4</ele>
        <time>2012-02-21T10:51:41Z</time>
      </trkpt>
      <trkpt lat="59.9916144521" lon="23.407304585">
        <ele>0.4</ele>
        <time>2012-02-21T10:51:42Z</time>
      </trkpt>
      <trkpt lat="59.9915659209" lon="23.4072485939">
        <ele>0.2</ele>
        <time>2012-02-21T10:51:48Z</time>
      </trkpt>
      <trkpt lat="59.9915592154" lon="23.4072303214">
        <ele>0.2</ele>
        <time>2012-02-21T10:51:49Z</time>
      </trkpt>
      <trkpt lat="59.9915522584" lon="23.4072043375">
        <ele>0.2</ele>
        <time>2012-02-21T10:51:51Z</time>
      </trkpt>
      <trkpt lat="59.9915214968" lon="23.4071039223">
        <ele>0.2</ele>
        <time>2012-02-21T10:51:57Z</time>
      </trkpt>
      <trkpt lat="59.9915040625" lon="23.4070117214">
        <ele>0.2</ele>
        <time>2012-02-21T10:52:02Z</time>
      </trkpt>
      <trkpt lat="59.9914939204" lon="23.4069680517">
        <ele>0.2</ele>
        <time>2012-02-21T10:52:04Z</time>
      </trkpt>
      <trkpt lat="59.9914869634" lon="23.4068860767">
        <ele>0.2</ele>
        <time>2012-02-21T10:52:08Z</time>
      </trkpt>
      <trkpt lat="59.9915011288" lon="23.4067559058">
        <ele>1.2</ele>
        <time>2012-02-21T10:52:14Z</time>
      </trkpt>
      <trkpt lat="59.9915178088" lon="23.4066395651">
        <ele>1.6</ele>
        <time>2012-02-21T10:52:20Z</time>
      </trkpt>
      <trkpt lat="59.9915473131" lon="23.4065592665">
        <ele>2.2</ele>
        <time>2012-02-21T10:52:25Z</time>
      </trkpt>
      <trkpt lat="59.9916119375" lon="23.4064119127">
        <ele>3.2</ele>
        <time>2012-02-21T10:52:32Z</time>
      </trkpt>
      <trkpt lat="59.9916453813" lon="23.4062898722">
        <ele>3.6</ele>
        <time>2012-02-21T10:52:36Z</time>
      </trkpt>
      <trkpt lat="59.9916910627" lon="23.4061118406">
        <ele>4.2</ele>
        <time>2012-02-21T10:52:41Z</time>
      </trkpt>
      <trkpt lat="59.9917129394" lon="23.40596675">
        <ele>5</ele>
        <time>2012-02-21T10:52:45Z</time>
      </trkpt>
      <trkpt lat="59.991721489" lon="23.405903299">
        <ele>5.2</ele>
        <time>2012-02-21T10:52:47Z</time>
      </trkpt>
      <trkpt lat="59.9916497399" lon="23.4058285324">
        <ele>5.8</ele>
        <time>2012-02-21T10:52:53Z</time>
      </trkpt>
      <trkpt lat="59.9916240913" lon="23.4058385069">
        <ele>5.8</ele>
        <time>2012-02-21T10:52:54Z</time>
      </trkpt>
      <trkpt lat="59.9914966864" lon="23.4058936598">
        <ele>6.2</ele>
        <time>2012-02-21T10:52:58Z</time>
      </trkpt>
      <trkpt lat="59.9913112788" lon="23.4059882914">
        <ele>7.4</ele>
        <time>2012-02-21T10:53:04Z</time>
      </trkpt>
      <trkpt lat="59.9911746538" lon="23.4060781454">
        <ele>7.8</ele>
        <time>2012-02-21T10:53:08Z</time>
      </trkpt>
      <trkpt lat="59.9910906672" lon="23.406119552">
        <ele>8</ele>
        <time>2012-02-21T10:53:12Z</time>
      </trkpt>
      <trkpt lat="59.9910553794" lon="23.4061324601">
        <ele>8.2</ele>
        <time>2012-02-21T10:53:14Z</time>
      </trkpt>
      <trkpt lat="59.9910472489" lon="23.4062905428">
        <ele>9</ele>
        <time>2012-02-21T10:53:18Z</time>
      </trkpt>
      <trkpt lat="59.9910603247" lon="23.4063470368">
        <ele>9.2</ele>
        <time>2012-02-21T10:53:19Z</time>
      </trkpt>
      <trkpt lat="59.9911465744" lon="23.4066660519">
        <ele>9.8</ele>
        <time>2012-02-21T10:53:25Z</time>
      </trkpt>
      <trkpt lat="59.9912280465" lon="23.4069673812">
        <ele>10</ele>
        <time>2012-02-21T10:53:29Z</time>
      </trkpt>
      <trkpt lat="59.9913105244" lon="23.4073470812">
        <ele>10.2</ele>
        <time>2012-02-21T10:53:33Z</time>
      </trkpt>
      <trkpt lat="59.991386213" lon="23.407786209">
        <ele>10.4</ele>
        <time>2012-02-21T10:53:37Z</time>
      </trkpt>
      <trkpt lat="59.9914180642" lon="23.4082405918">
        <ele>10.4</ele>
        <time>2012-02-21T10:53:41Z</time>
      </trkpt>
      <trkpt lat="59.9914152981" lon="23.4083423481">
        <ele>10.4</ele>
        <time>2012-02-21T10:53:42Z</time>
      </trkpt>
      <trkpt lat="59.9913768252" lon="23.4086011811">
        <ele>10.6</ele>
        <time>2012-02-21T10:53:45Z</time>
      </trkpt>
      <trkpt lat="59.9912895696" lon="23.4088042746">
        <ele>10.6</ele>
        <time>2012-02-21T10:53:49Z</time>
      </trkpt>
      <trkpt lat="59.9911336663" lon="23.4088423284">
        <ele>9.8</ele>
        <time>2012-02-21T10:53:55Z</time>
      </trkpt>
      <trkpt lat="59.9910147271" lon="23.408720707">
        <ele>9.2</ele>
        <time>2012-02-21T10:54:00Z</time>
      </trkpt>
      <trkpt lat="59.990932836" lon="23.4085762031">
        <ele>9</ele>
        <time>2012-02-21T10:54:04Z</time>
      </trkpt>
      <trkpt lat="59.9908623442" lon="23.4084135942">
        <ele>8</ele>
        <time>2012-02-21T10:54:09Z</time>
      </trkpt>
      <trkpt lat="59.9908278946" lon="23.4082871113">
        <ele>7.4</ele>
        <time>2012-02-21T10:54:13Z</time>
      </trkpt>
      <trkpt lat="59.9907840573" lon="23.4081574433">
        <ele>7</ele>
        <time>2012-02-21T10:54:17Z</time>
      </trkpt>
      <trkpt lat="59.9907216121" lon="23.4079845247">
        <ele>6.8</ele>
        <time>2012-02-21T10:54:22Z</time>
      </trkpt>
      <trkpt lat="59.9906553113" lon="23.4078123605">
        <ele>6.6</ele>
        <time>2012-02-21T10:54:27Z</time>
      </trkpt>
      <trkpt lat="59.9906393018" lon="23.4077779947">
        <ele>6.6</ele>
        <time>2012-02-21T10:54:30Z</time>
      </trkpt>
    </trkseg>
  </trk>
</gpx>